Time;durP1;ratioP1;P1;durP2;ratioP2;P2;SDS_P1;SDS_P2;PMS_P1;PMS_P2;Temp;Humidity;BMP_temperature;BMP_pressure;BME280_temperature;BME280_humidity;BME280_pressure;Samples;Min_cycle;Max_cycle;Signal;HPM_P1;HPM_P2
2023/09/23 00:07:23;;;;;;;5.90;3.30;;;;;;;15.29;73.47;100276.13;15652147;28;20120;-49
2023/09/23 00:14:59;;;;;;;4.55;3.17;;;;;;;15.36;73.99;100287.56;15654642;28;20505;-50
2023/09/23 00:22:32;;;;;;;5.72;3.20;;;;;;;14.65;75.88;100300.16;15682789;28;20132;-47
2023/09/23 00:30:12;;;;;;;3.80;3.00;;;;;;;14.82;75.37;100305.50;15652812;28;20054;-47
2023/09/23 00:37:48;;;;;;;4.28;2.95;;;;;;;14.94;75.14;100287.31;15642815;28;20049;-50
2023/09/23 00:45:29;;;;;;;5.70;2.95;;;;;;;15.24;73.48;100290.38;15685395;28;20098;-45
2023/09/23 00:53:04;;;;;;;5.75;3.10;;;;;;;15.23;72.98;100279.84;15685046;28;20045;-45
2023/09/23 01:00:44;;;;;;;6.22;3.35;;;;;;;15.08;73.20;100252.63;15696277;28;20045;-46
2023/09/23 01:08:19;;;;;;;3.60;2.70;;;;;;;15.21;72.91;100250.34;15678268;28;20660;-46
2023/09/23 01:15:54;;;;;;;6.13;3.30;;;;;;;15.29;71.76;100258.03;15656975;28;20055;-46
2023/09/23 01:23:28;;;;;;;3.88;3.13;;;;;;;15.19;71.98;100257.06;15666805;28;20509;-50
2023/09/23 01:31:02;;;;;;;4.10;3.22;;;;;;;15.10;72.57;100262.09;15666536;28;20075;-46
2023/09/23 01:38:40;;;;;;;3.85;3.28;;;;;;;15.07;72.60;100269.91;15682869;28;20064;-46
2023/09/23 01:46:14;;;;;;;3.58;3.08;;;;;;;14.87;73.28;100276.66;15683064;28;20037;-45
2023/09/23 01:53:50;;;;;;;6.60;3.20;;;;;;;15.00;72.51;100276.31;15681433;28;20408;-47
2023/09/23 02:01:30;;;;;;;6.18;3.47;;;;;;;14.84;72.24;100287.19;15648345;28;20036;-46
2023/09/23 02:09:04;;;;;;;4.43;3.13;;;;;;;14.79;72.24;100301.44;15674470;28;20037;-46
2023/09/23 02:16:39;;;;;;;9.02;3.47;;;;;;;14.75;72.96;100303.81;15660323;28;20869;-46
2023/09/23 02:24:15;;;;;;;5.05;2.75;;;;;;;14.66;72.28;100301.78;15663518;28;20036;-46
2023/09/23 02:31:49;;;;;;;6.43;3.00;;;;;;;14.18;74.51;100312.09;15662304;28;20497;-46
2023/09/23 02:39:23;;;;;;;4.32;2.58;;;;;;;14.03;75.35;100309.94;15662660;28;20095;-50
2023/09/23 02:46:56;;;;;;;4.50;2.47;;;;;;;14.07;74.66;100321.06;15679414;28;20045;-47
2023/09/23 02:54:31;;;;;;;5.70;2.60;;;;;;;13.91;75.30;100336.16;15679322;28;20155;-49
2023/09/23 03:02:07;;;;;;;3.75;2.63;;;;;;;13.70;75.54;100334.94;15643161;28;20511;-49
2023/09/23 03:09:55;;;;;;;3.75;2.20;;;;;;;13.86;74.68;100346.03;15666064;28;20044;-48
2023/09/23 03:17:31;;;;;;;6.13;2.10;;;;;;;13.57;75.86;100364.91;15670593;28;20049;-47
2023/09/23 03:25:07;;;;;;;4.00;2.03;;;;;;;14.02;74.09;100364.13;15677214;28;20603;-47
2023/09/23 03:32:40;;;;;;;3.33;2.00;;;;;;;13.93;74.15;100379.91;15676924;28;20045;-48
2023/09/23 03:40:20;;;;;;;2.92;1.95;;;;;;;13.77;74.94;100386.06;15675144;28;20095;-47
2023/09/23 03:47:53;;;;;;;3.58;2.10;;;;;;;14.10;73.24;100384.53;15675400;28;20489;-49
2023/09/23 03:55:29;;;;;;;3.90;1.77;;;;;;;13.94;73.46;100396.91;15675575;28;20032;-51
2023/09/23 04:03:03;;;;;;;4.75;1.85;;;;;;;14.08;72.88;100406.34;15670614;28;20040;-47
2023/09/23 04:10:39;;;;;;;;;;;;;;;13.25;75.81;100404.94;15662350;28;20045;-51
2023/09/23 04:18:12;;;;;;;3.47;1.48;;;;;;;13.22;75.64;100410.81;15669107;28;19975;-50
2023/09/23 04:25:49;;;;;;;2.42;1.50;;;;;;;13.86;73.22;100425.09;15666101;28;20103;-50
2023/09/23 04:33:27;;;;;;;2.90;1.30;;;;;;;13.43;74.30;100439.84;15657730;28;20067;-50
2023/09/23 04:41:02;;;;;;;3.38;1.08;;;;;;;13.62;73.56;100443.22;15658242;28;20413;-50
2023/09/23 04:48:35;;;;;;;2.45;1.40;;;;;;;13.44;73.68;100460.38;15658455;28;20037;-53
2023/09/23 04:56:10;;;;;;;4.07;1.45;;;;;;;13.28;74.26;100461.06;15684112;28;20057;-50
2023/09/23 05:03:52;;;;;;;3.45;1.10;;;;;;;13.45;73.31;100490.84;15677427;28;20420;-51
2023/09/23 05:11:26;;;;;;;3.30;1.20;;;;;;;13.62;72.21;100482.88;15677191;28;20049;-50
2023/09/23 05:18:59;;;;;;;2.60;1.15;;;;;;;13.42;73.14;100502.09;15639150;28;20080;-51
2023/09/23 05:26:34;;;;;;;1.75;1.00;;;;;;;12.99;74.53;100503.19;15668480;28;20073;-50
2023/09/23 05:34:08;;;;;;;2.28;0.90;;;;;;;13.27;73.16;100519.53;15660597;28;20037;-49
2023/09/23 05:41:45;;;;;;;5.07;1.73;;;;;;;13.34;72.11;100537.50;15683789;28;20041;-51
2023/09/23 05:49:22;;;;;;;1.48;0.82;;;;;;;13.73;71.89;100557.53;15679063;28;20067;-49
2023/09/23 05:56:57;;;;;;;3.17;0.93;;;;;;;13.55;72.25;100563.88;15676012;28;20061;-51
2023/09/23 06:04:32;;;;;;;2.10;1.05;;;;;;;13.51;72.38;100568.91;15660878;28;20554;-49
2023/09/23 06:12:08;;;;;;;2.58;0.98;;;;;;;13.56;72.59;100583.56;15655466;28;20049;-51
2023/09/23 06:19:41;;;;;;;2.03;0.80;;;;;;;13.49;72.21;100578.31;15652386;28;20037;-49
2023/09/23 06:27:16;;;;;;;;;;;;;;;13.73;71.83;100598.00;15671050;28;20481;-49
2023/09/23 06:34:49;;;;;;;1.20;0.60;;;;;;;13.97;70.58;100599.63;15679673;28;19970;-50
2023/09/23 06:42:24;;;;;;;2.97;0.80;;;;;;;13.91;70.15;100616.78;15664878;28;20072;-50
2023/09/23 06:49:58;;;;;;;1.92;0.60;;;;;;;13.94;69.43;100618.16;15680796;28;20098;-52
2023/09/23 06:57:32;;;;;;;4.00;0.70;;;;;;;15.21;66.63;100628.06;15675310;28;20060;-49
2023/09/23 07:05:08;;;;;;;2.45;0.60;;;;;;;15.31;66.06;100647.16;15672631;28;20045;-48
2023/09/23 07:12:42;;;;;;;1.30;0.65;;;;;;;15.22;65.67;100649.44;15672687;28;20037;-47
2023/09/23 07:20:19;;;;;;;6.03;0.80;;;;;;;15.65;64.84;100664.28;15678373;28;20557;-49
2023/09/23 07:27:53;;;;;;;1.10;0.63;;;;;;;16.27;61.14;100676.84;15678087;28;20410;-48
2023/09/23 07:35:30;;;;;;;1.98;0.68;;;;;;;16.04;61.81;100676.00;15676844;28;20490;-49
2023/09/23 07:43:05;;;;;;;3.00;0.73;;;;;;;16.29;60.51;100682.84;15676749;28;20449;-49
2023/09/23 07:50:38;;;;;;;3.03;0.70;;;;;;;16.45;59.48;100697.41;15675638;28;20268;-49
2023/09/23 07:58:13;;;;;;;3.50;0.40;;;;;;;17.17;60.02;100696.44;15663095;28;20040;-52
2023/09/23 08:05:46;;;;;;;1.05;0.45;;;;;;;16.99;58.46;100698.41;15671383;28;20293;-48
2023/09/23 08:13:21;;;;;;;1.85;0.70;;;;;;;16.36;57.52;100724.09;15650892;28;20050;-48
2023/09/23 08:20:57;;;;;;;1.08;0.60;;;;;;;16.49;58.55;100731.06;15663276;28;20041;-50
2023/09/23 08:28:34;;;;;;;1.20;0.63;;;;;;;16.91;57.18;100738.69;15684167;28;20060;-52
2023/09/23 08:36:07;;;;;;;2.13;0.52;;;;;;;16.70;57.23;100773.66;15669177;28;20043;-48
2023/09/23 08:43:43;;;;;;;2.17;0.80;;;;;;;16.33;58.88;100766.06;15691606;22;20486;-71
2023/09/23 08:51:19;;;;;;;1.38;0.65;;;;;;;16.30;58.32;100785.53;15685738;28;20446;-70
2023/09/23 08:58:53;;;;;;;1.50;0.80;;;;;;;16.99;54.87;100801.44;15680021;28;20139;-71
2023/09/23 09:06:29;;;;;;;1.10;0.75;;;;;;;18.31;53.69;100803.94;15676085;28;20041;-70
2023/09/23 09:14:04;;;;;;;1.17;0.77;;;;;;;18.15;54.31;100818.50;15662921;28;20045;-71
2023/09/23 09:21:37;;;;;;;1.00;0.70;;;;;;;18.48;51.81;100830.97;15622606;28;20534;-70
2023/09/23 09:29:12;;;;;;;2.00;0.80;;;;;;;17.28;54.73;100858.25;15623256;28;20046;-70
2023/09/23 09:36:47;;;;;;;0.93;0.63;;;;;;;17.62;53.92;100858.09;15621654;28;20127;-71
2023/09/23 09:44:23;;;;;;;3.00;0.70;;;;;;;17.74;55.80;100861.53;15622391;28;20045;-70
2023/09/23 09:51:57;;;;;;;1.15;0.80;;;;;;;17.09;56.25;100863.13;15621218;28;20049;-70
2023/09/23 09:59:33;;;;;;;3.97;2.63;;;;;;;17.03;55.91;100869.56;15646647;28;20114;-71
2023/09/23 10:07:10;;;;;;;1.80;1.20;;;;;;;17.78;54.83;100881.66;15675282;28;20033;-70
2023/09/23 10:14:54;;;;;;;2.30;1.30;;;;;;;17.56;53.83;100868.91;15654371;28;20053;-70
2023/09/23 10:22:30;;;;;;;2.30;1.38;;;;;;;17.66;54.50;100876.34;15664617;28;20041;-70
2023/09/23 10:30:07;;;;;;;1.52;0.98;;;;;;;18.61;52.38;100879.47;15663208;28;20114;-71
2023/09/23 10:37:41;;;;;;;1.30;1.00;;;;;;;18.86;50.54;100879.66;15691993;28;20044;-70
2023/09/23 10:45:16;;;;;;;2.33;1.00;;;;;;;17.43;53.47;100887.44;15680316;28;20429;-72
2023/09/23 10:52:50;;;;;;;1.42;1.00;;;;;;;18.44;51.11;100884.22;15679414;28;20151;-69
2023/09/23 11:00:25;;;;;;;9.15;3.95;;;;;;;19.46;50.12;100884.91;15709461;28;20037;-70
2023/09/23 11:07:58;;;;;;;1.23;0.80;;;;;;;18.57;50.03;100891.94;15733699;28;20075;-71
2023/09/23 11:15:33;;;;;;;3.38;1.00;;;;;;;17.72;51.75;100883.50;15725910;28;20040;-70
2023/09/23 11:23:06;;;;;;;1.80;1.00;;;;;;;17.67;52.07;100890.72;15700223;28;20064;-69
2023/09/23 11:30:42;;;;;;;1.00;0.80;;;;;;;19.27;48.39;100892.72;15717954;28;20056;-68
2023/09/23 11:38:16;;;;;;;1.17;0.77;;;;;;;20.03;47.97;100909.34;15677594;28;20446;-70
2023/09/23 11:45:55;;;;;;;3.83;1.70;;;;;;;18.63;49.37;100922.69;15681247;28;20052;-70
2023/09/23 11:53:28;;;;;;;2.00;0.90;;;;;;;17.58;52.36;100920.22;15739350;28;20128;-70
2023/09/23 12:01:04;;;;;;;1.88;1.00;;;;;;;17.68;52.73;100916.81;15742362;28;20052;-71
2023/09/23 12:08:39;;;;;;;2.03;0.70;;;;;;;18.82;50.72;100919.34;15759220;28;20076;-69
2023/09/23 12:16:13;;;;;;;1.25;0.70;;;;;;;19.15;48.68;100930.19;15755293;28;20050;-68
2023/09/23 12:23:46;;;;;;;1.65;0.73;;;;;;;18.56;49.72;100920.22;15720635;28;20045;-69
2023/09/23 12:31:21;;;;;;;2.17;0.80;;;;;;;18.22;49.13;100938.63;15695669;28;20496;-70
2023/09/23 12:38:57;;;;;;;3.47;0.80;;;;;;;20.18;46.58;100935.00;15677855;28;20052;-70
2023/09/23 12:46:31;;;;;;;2.03;0.70;;;;;;;19.97;44.51;100950.50;15694890;28;20037;-69
2023/09/23 12:54:05;;;;;;;1.65;0.80;;;;;;;20.17;43.54;100956.00;15695844;28;20045;-70
2023/09/23 13:01:40;;;;;;;1.58;0.75;;;;;;;19.17;44.79;100969.66;15737789;28;20040;-70
2023/09/23 13:09:13;;;;;;;3.38;0.75;;;;;;;19.89;43.52;100984.50;15739442;28;20028;-71
2023/09/23 13:16:48;;;;;;;4.53;0.70;;;;;;;19.76;43.25;100988.53;15747329;28;20094;-69
2023/09/23 13:24:21;;;;;;;2.90;0.80;;;;;;;19.46;45.38;100999.25;15705761;28;20059;-70
2023/09/23 13:31:56;;;;;;;3.97;0.80;;;;;;;19.34;44.79;100994.81;15737524;28;20394;-69
2023/09/23 13:39:29;;;;;;;1.77;0.70;;;;;;;19.73;46.47;101010.06;15746987;28;20041;-71
2023/09/23 13:47:04;;;;;;;2.03;0.80;;;;;;;19.69;46.08;101017.94;15745954;28;20430;-68
2023/09/23 13:54:37;;;;;;;2.75;0.90;;;;;;;19.83;44.53;101021.81;15744948;28;20051;-68
2023/09/23 14:02:14;;;;;;;1.05;0.73;;;;;;;19.73;45.20;101037.28;15738177;28;20048;-69
2023/09/23 14:09:48;;;;;;;2.70;0.90;;;;;;;19.03;45.64;101048.19;15742811;28;20041;-69
2023/09/23 14:17:26;;;;;;;3.15;1.10;;;;;;;19.11;46.37;101058.59;15722857;28;20202;-69
2023/09/23 14:24:59;;;;;;;4.22;1.20;;;;;;;18.70;47.10;101070.16;15696103;28;20068;-68
2023/09/23 14:32:33;;;;;;;;;;;;;;;19.60;47.60;101076.69;15680298;28;20564;-69
2023/09/23 14:40:07;;;;;;;1.23;0.88;;;;;;;19.02;47.37;101081.09;15679346;28;20336;-69
2023/09/23 14:47:42;;;;;;;3.58;1.10;;;;;;;18.90;47.56;101092.13;15679257;28;20053;-69
2023/09/23 14:55:15;;;;;;;2.05;1.00;;;;;;;18.34;49.39;101102.38;15678914;28;20037;-70
2023/09/23 15:02:49;;;;;;;1.95;1.00;;;;;;;17.79;50.72;101114.09;15730842;28;20090;-70
2023/09/23 15:10:22;;;;;;;1.73;0.70;;;;;;;18.05;50.34;101118.03;15739979;28;20047;-69
2023/09/23 15:17:57;;;;;;;3.05;1.10;;;;;;;18.14;50.35;101130.09;15734606;28;20037;-69
2023/09/23 15:25:31;;;;;;;4.00;1.30;;;;;;;17.75;51.32;101138.22;15688754;28;20048;-69
2023/09/23 15:33:06;;;;;;;2.90;1.27;;;;;;;17.92;51.60;101151.78;15676907;28;20099;-69
2023/09/23 15:40:42;;;;;;;3.25;1.30;;;;;;;18.19;50.58;101148.38;15677932;28;20033;-69
2023/09/23 15:48:18;;;;;;;3.55;1.20;;;;;;;17.93;51.67;101153.41;15676104;28;20166;-69
2023/09/23 15:55:53;;;;;;;2.85;1.05;;;;;;;18.13;51.96;101168.38;15674679;28;20435;-69
2023/09/23 16:03:27;;;;;;;3.22;1.17;;;;;;;18.14;52.30;101183.59;15676098;28;20053;-69
2023/09/23 16:11:01;;;;;;;2.30;1.33;;;;;;;18.21;51.67;101176.91;15675126;28;20037;-69
2023/09/23 16:18:35;;;;;;;2.55;1.00;;;;;;;17.84;52.47;101190.22;15725867;28;20113;-70
2023/09/23 16:26:08;;;;;;;5.32;1.40;;;;;;;18.17;53.20;101210.28;15680747;28;20116;-71
2023/09/23 16:33:43;;;;;;;3.58;1.67;;;;;;;18.10;53.04;101229.47;15674981;28;20073;-70
2023/09/23 16:41:16;;;;;;;6.07;2.78;;;;;;;18.05;53.66;101240.25;15674894;28;20045;-68
2023/09/23 16:48:50;;;;;;;5.38;2.13;;;;;;;18.16;53.78;101249.38;15682625;28;20279;-68
2023/09/23 16:56:23;;;;;;;5.93;2.10;;;;;;;18.13;54.39;101263.47;15686023;28;20053;-69
2023/09/23 17:03:57;;;;;;;4.00;1.50;;;;;;;17.81;55.20;101277.59;15746664;28;20040;-69
2023/09/23 17:11:32;;;;;;;2.45;1.70;;;;;;;17.74;55.84;101280.47;15746751;28;20127;-70
2023/09/23 17:19:07;;;;;;;;;;;;;;;17.51;56.42;101284.09;15707552;28;20048;-69
2023/09/23 17:26:40;;;;;;;4.68;2.42;;;;;;;17.41;56.87;101275.78;15689565;28;19932;-69
2023/09/23 17:34:14;;;;;;;7.95;3.70;;;;;;;17.00;57.95;101291.22;15723211;28;20060;-70
2023/09/23 17:41:47;;;;;;;3.67;2.78;;;;;;;17.01;58.15;101295.59;15745010;28;20106;-69
2023/09/23 17:49:22;;;;;;;;;;;;;;;16.68;58.89;101293.47;15714754;28;20048;-68
2023/09/23 17:56:55;;;;;;;6.95;5.18;;;;;;;16.67;59.17;101310.81;15686234;28;19925;-68
2023/09/23 18:04:30;;;;;;;6.95;4.05;;;;;;;16.64;59.10;101324.84;15746274;28;20415;-69
2023/09/23 18:12:04;;;;;;;5.13;3.05;;;;;;;16.42;59.29;101316.47;15742559;28;20090;-69
2023/09/23 18:19:39;;;;;;;7.75;4.45;;;;;;;16.12;59.98;101332.81;15740556;28;20425;-70
2023/09/23 18:27:13;;;;;;;7.85;4.82;;;;;;;15.85;61.21;101340.50;15742077;28;20052;-69
2023/09/23 18:34:47;;;;;;;4.63;3.80;;;;;;;15.84;60.80;101354.25;15742294;28;20048;-68
2023/09/23 18:42:20;;;;;;;10.40;8.38;;;;;;;15.57;61.86;101362.72;15742494;28;20050;-68
2023/09/23 18:49:56;;;;;;;11.57;8.45;;;;;;;15.65;61.26;101380.56;15720474;28;20475;-68
2023/09/23 18:57:29;;;;;;;8.98;4.90;;;;;;;15.49;61.54;101393.63;15693140;28;20036;-69
2023/09/23 19:05:04;;;;;;;5.80;4.40;;;;;;;15.36;62.14;101410.00;15742575;28;20098;-68
2023/09/23 19:12:38;;;;;;;10.15;5.30;;;;;;;15.54;61.59;101411.88;15736898;28;20049;-69
2023/09/23 19:20:15;;;;;;;9.60;7.03;;;;;;;15.46;61.63;101423.00;15741579;28;20035;-69
2023/09/23 19:27:49;;;;;;;8.82;5.22;;;;;;;15.31;62.21;101434.19;15739684;28;20041;-68
2023/09/23 19:35:23;;;;;;;5.93;3.58;;;;;;;15.29;61.53;101444.41;15740005;28;20430;-69
2023/09/23 19:42:57;;;;;;;8.00;4.40;;;;;;;15.17;62.03;101446.22;15739504;28;20106;-69
2023/09/23 19:50:32;;;;;;;7.35;5.53;;;;;;;15.05;62.07;101456.91;15738898;28;20123;-68
2023/09/23 19:58:06;;;;;;;6.07;4.60;;;;;;;15.11;61.06;101461.47;15731990;28;20570;-69
2023/09/23 20:05:40;;;;;;;6.95;4.68;;;;;;;15.02;61.28;101473.59;15737461;28;20143;-69
2023/09/23 20:13:13;;;;;;;9.25;4.70;;;;;;;14.54;63.22;101499.31;15730901;28;20041;-69
2023/09/23 20:20:48;;;;;;;10.60;4.80;;;;;;;14.47;63.01;101503.91;15740274;28;20106;-69
2023/09/23 20:28:20;;;;;;;7.50;4.80;;;;;;;14.33;63.45;101515.00;15749747;28;20067;-69
2023/09/23 20:35:55;;;;;;;7.00;5.18;;;;;;;14.21;63.62;101523.78;15749442;28;20043;-69
2023/09/23 20:43:49;;;;;;;8.60;5.20;;;;;;;13.93;64.45;101518.69;15733470;28;20051;-68
2023/09/23 20:51:24;;;;;;;8.73;5.10;;;;;;;13.82;65.09;101532.88;15747974;28;20072;-68
2023/09/23 20:58:59;;;;;;;8.63;5.00;;;;;;;13.67;65.57;101545.78;15740894;28;20036;-69
2023/09/23 21:06:34;;;;;;;8.82;6.38;;;;;;;13.65;65.62;101559.47;15747361;28;20074;-68
2023/09/23 21:14:08;;;;;;;9.05;5.88;;;;;;;13.56;65.77;101562.59;15740749;28;20098;-69
2023/09/23 21:21:42;;;;;;;10.20;6.30;;;;;;;13.41;66.37;101568.22;15747199;28;20075;-68
2023/09/23 21:29:15;;;;;;;8.98;6.03;;;;;;;13.37;66.45;101575.06;15745845;28;20052;-69
2023/09/23 21:36:53;;;;;;;10.10;6.30;;;;;;;13.09;67.35;101572.53;15744362;28;20074;-70
2023/09/23 21:44:28;;;;;;;8.38;4.10;;;;;;;13.15;66.98;101577.09;15745643;28;20052;-69
2023/09/23 21:52:03;;;;;;;6.78;3.97;;;;;;;12.77;68.63;101585.75;15745151;28;20371;-69
2023/09/23 21:59:37;;;;;;;8.35;4.32;;;;;;;12.50;69.02;101601.03;15737974;28;20123;-69
2023/09/23 22:07:12;;;;;;;6.78;3.85;;;;;;;13.04;67.23;101597.41;15717389;28;20042;-69
2023/09/23 22:14:45;;;;;;;6.28;3.65;;;;;;;12.67;68.03;101596.09;15737401;28;20071;-69
2023/09/23 22:22:20;;;;;;;8.48;3.72;;;;;;;12.35;68.88;101568.03;15743579;28;20033;-69
2023/09/23 22:29:54;;;;;;;6.03;4.07;;;;;;;12.46;68.84;101592.50;15743799;28;20049;-69
2023/09/23 22:37:28;;;;;;;;;;;;;;;12.59;68.16;101589.03;15742762;28;20072;-69
2023/09/23 22:45:01;;;;;;;6.88;4.38;;;;;;;12.72;68.09;101596.31;15741825;28;20386;-69
2023/09/23 22:52:37;;;;;;;7.10;3.67;;;;;;;12.75;67.36;101607.50;15742180;28;20098;-69
2023/09/23 23:00:14;;;;;;;6.63;3.78;;;;;;;12.64;67.60;101615.38;15734452;28;20039;-69
2023/09/23 23:07:50;;;;;;;4.57;3.45;;;;;;;12.66;67.35;101621.38;15740310;28;20052;-68
2023/09/23 23:15:24;;;;;;;4.70;3.95;;;;;;;12.76;66.51;101625.34;15732978;28;20053;-69
2023/09/23 23:22:59;;;;;;;8.30;3.75;;;;;;;12.56;67.32;101629.84;15739005;28;20045;-69
2023/09/23 23:30:32;;;;;;;6.03;3.75;;;;;;;12.55;67.21;101633.56;15721249;28;20074;-69
2023/09/23 23:38:06;;;;;;;5.32;3.70;;;;;;;12.65;66.60;101641.25;15738652;28;20122;-70
2023/09/23 23:45:39;;;;;;;7.75;3.92;;;;;;;12.72;66.06;101648.31;15738016;28;20052;-69
2023/09/23 23:53:15;;;;;;;5.97;3.63;;;;;;;12.47;66.50;101658.78;15737884;28;20029;-70
